createdAt,value
2022-11-03T00:01:44.110Z,12.45
2022-11-03T00:04:13.109Z,13.65
2022-11-03T00:06:41.654Z,10.82
2022-11-03T00:09:11.218Z,13.02
2022-11-03T00:11:40.078Z,9.90
2022-11-03T00:14:07.443Z,9.98
2022-11-03T00:16:34.047Z,11.15
2022-11-03T00:19:00.818Z,8.98
2022-11-03T00:21:28.153Z,10.20
2022-11-03T00:23:54.948Z,13.07
2022-11-03T00:26:26.507Z,10.48
2022-11-03T00:28:54.983Z,10.18
2022-11-03T00:31:33.065Z,8.88
2022-11-03T00:34:00.844Z,12.35
2022-11-03T00:36:32.652Z,10.35
2022-11-03T00:38:59.363Z,14.18
2022-11-03T00:41:26.767Z,13.93
2022-11-03T00:43:54.226Z,13.90
2022-11-03T00:46:22.595Z,14.93
2022-11-03T00:48:50.151Z,10.25
2022-11-03T00:51:29.910Z,10.13
2022-11-03T00:53:58.964Z,14.23
2022-11-03T00:56:32.346Z,20.63
2022-11-03T00:59:00.709Z,17.17
2022-11-03T01:01:31.333Z,11.63
2022-11-03T01:04:18.107Z,15.27
2022-11-03T01:06:50.252Z,16.20
2022-11-03T01:09:18.714Z,12.85
2022-11-03T01:12:05.246Z,18.85
2022-11-03T01:14:44.459Z,18.50
2022-11-03T01:17:16.698Z,16.13
2022-11-03T01:19:43.373Z,11.90
2022-11-03T01:22:11.294Z,13.23
2022-11-03T01:24:39.915Z,15.10
2022-11-03T01:27:06.597Z,12.20
2022-11-03T01:29:33.276Z,12.68
2022-11-03T01:32:00.092Z,12.18
2022-11-03T01:34:26.712Z,11.63
2022-11-03T01:36:53.304Z,14.02
2022-11-03T01:39:20.258Z,11.25
2022-11-03T01:41:49.364Z,11.43
2022-11-03T01:44:15.889Z,11.35
2022-11-03T01:46:48.894Z,14.43
2022-11-03T01:49:22.976Z,14.60
2022-11-03T01:51:57.334Z,16.67
2022-11-03T01:54:25.933Z,11.45
2022-11-03T01:56:53.138Z,11.23
2022-11-03T01:59:22.555Z,13.73
2022-11-03T02:01:49.394Z,15.45
2022-11-03T02:04:31.730Z,10.85
2022-11-03T02:07:15.159Z,14.32
2022-11-03T02:09:41.732Z,8.27
2022-11-03T02:12:09.308Z,10.63
2022-11-03T02:14:41.144Z,11.20
2022-11-03T02:17:12.255Z,12.57
2022-11-03T02:19:49.506Z,11.18
2022-11-03T02:22:35.290Z,9.80
2022-11-03T02:25:04.888Z,10.35
2022-11-03T02:27:31.608Z,10.38
2022-11-03T02:29:58.977Z,14.27
2022-11-03T02:32:32.663Z,6.97
2022-11-03T02:35:20.226Z,8.07
2022-11-03T02:37:50.388Z,12.57
2022-11-03T02:40:22.230Z,9.93
2022-11-03T02:42:52.423Z,14.90
2022-11-03T02:45:21.330Z,10.50
2022-11-03T02:47:50.684Z,11.75
2022-11-03T02:50:19.952Z,14.93
2022-11-03T02:52:47.803Z,13.70
2022-11-03T02:55:35.622Z,15.05
2022-11-03T02:58:08.112Z,10.35
2022-11-03T03:00:52.003Z,11.23
2022-11-03T03:03:26.044Z,12.85
2022-11-03T03:05:57.975Z,11.60
2022-11-03T03:08:26.946Z,12.57
2022-11-03T03:10:54.838Z,11.45
2022-11-03T03:13:23.908Z,10.13
2022-11-03T03:16:04.318Z,13.93
2022-11-03T03:18:45.804Z,13.70
2022-11-03T03:21:23.399Z,12.45
2022-11-03T03:24:02.476Z,10.45
2022-11-03T03:26:41.390Z,13.82
2022-11-03T03:29:24.993Z,12.77
2022-11-03T03:31:57.207Z,18.70
2022-11-03T03:34:35.621Z,8.90
2022-11-03T03:37:05.447Z,14.57
2022-11-03T03:39:36.091Z,13.70
2022-11-03T03:42:03.773Z,11.48
2022-11-03T03:44:32.075Z,18.83
2022-11-03T03:47:06.856Z,13.70
2022-11-03T03:49:33.417Z,13.55
2022-11-03T03:52:00.656Z,12.15
2022-11-03T03:54:28.447Z,11.27
2022-11-03T03:57:05.924Z,13.55
2022-11-03T03:59:32.617Z,14.15
2022-11-03T04:01:59.558Z,11.73
2022-11-03T04:04:26.307Z,11.40
2022-11-03T04:07:15.658Z,10.45
2022-11-03T04:09:42.309Z,12.93
2022-11-03T04:12:28.044Z,11.82
2022-11-03T04:15:13.496Z,11.35
2022-11-03T04:18:02.536Z,11.68
2022-11-03T04:20:48.316Z,11.85
2022-11-03T04:23:15.052Z,13.82
2022-11-03T04:25:47.826Z,10.57
2022-11-03T04:28:15.810Z,15.05
2022-11-03T04:30:42.461Z,9.35
2022-11-03T04:33:17.711Z,11.68
2022-11-03T04:35:44.933Z,15.57
2022-11-03T04:38:14.230Z,14.15
2022-11-03T04:40:47.112Z,9.10
2022-11-03T04:43:20.172Z,12.23
2022-11-03T04:45:48.023Z,9.95
2022-11-03T04:48:25.493Z,13.27
2022-11-03T04:50:57.780Z,11.18
2022-11-03T04:53:28.189Z,10.63
2022-11-03T04:55:55.035Z,14.30
2022-11-03T04:58:32.789Z,10.80
2022-11-03T05:01:01.292Z,12.90
2022-11-03T05:03:32.077Z,11.20
2022-11-03T05:06:01.735Z,11.75
2022-11-03T05:08:28.357Z,10.68
2022-11-03T05:10:55.238Z,13.48
2022-11-03T05:13:24.831Z,15.45
2022-11-03T05:16:01.972Z,12.38
2022-11-03T05:18:35.112Z,12.57
2022-11-03T05:21:14.753Z,14.43
2022-11-03T05:23:50.459Z,16.70
2022-11-03T05:26:26.646Z,16.73
2022-11-03T05:28:59.831Z,16.45
2022-11-03T05:31:29.333Z,13.07
2022-11-03T05:33:59.584Z,12.80
2022-11-03T05:36:29.946Z,12.95
2022-11-03T05:39:05.972Z,13.68
2022-11-03T05:41:32.944Z,13.98
2022-11-03T05:44:02.813Z,18.40
2022-11-03T05:46:31.944Z,14.60
2022-11-03T05:49:01.646Z,16.65
2022-11-03T05:51:39.161Z,15.40
2022-11-03T05:54:15.606Z,12.77
2022-11-03T05:56:45.256Z,16.80
2022-11-03T05:59:13.659Z,16.85
2022-11-03T06:01:41.467Z,15.55
2022-11-03T06:04:20.419Z,13.65
2022-11-03T06:06:58.775Z,13.48
2022-11-03T06:09:26.750Z,14.93
2022-11-03T06:11:56.980Z,19.50
2022-11-03T06:14:30.077Z,12.43
2022-11-03T06:16:57.906Z,11.15
2022-11-03T06:19:44.615Z,19.02
2022-11-03T06:22:17.049Z,16.15
2022-11-03T06:24:45.358Z,13.35
2022-11-03T06:27:19.321Z,16.75
2022-11-03T06:29:53.340Z,22.67
2022-11-03T06:32:20.076Z,18.35
2022-11-03T06:34:50.446Z,20.15
2022-11-03T06:37:24.671Z,20.10
2022-11-03T06:39:53.716Z,20.90
2022-11-03T06:42:23.787Z,16.58
2022-11-03T06:44:51.641Z,19.08
2022-11-03T06:47:27.550Z,21.08
2022-11-03T06:49:56.684Z,24.48
2022-11-03T06:52:29.196Z,19.17
2022-11-03T06:55:12.166Z,18.88
2022-11-03T06:57:44.139Z,20.00
2022-11-03T07:00:34.098Z,20.08
2022-11-03T07:03:18.117Z,21.05
2022-11-03T07:05:45.312Z,20.85
2022-11-03T07:08:22.561Z,23.02
2022-11-03T07:10:50.621Z,20.95
2022-11-03T07:13:20.412Z,22.55
2022-11-03T07:15:47.451Z,23.27
2022-11-03T07:18:24.507Z,22.05
2022-11-03T07:20:52.472Z,20.88
2022-11-03T07:23:22.029Z,22.40
2022-11-03T07:25:53.264Z,21.88
2022-11-03T07:28:20.475Z,20.25
2022-11-03T07:30:47.493Z,16.58
2022-11-03T07:33:20.923Z,17.25
2022-11-03T07:38:35.766Z,22.92
2022-11-03T07:41:02.794Z,18.50
2022-11-03T07:43:34.817Z,22.00
2022-11-03T07:46:03.274Z,17.67
2022-11-03T07:48:36.047Z,22.40
2022-11-03T07:51:23.246Z,19.42
2022-11-03T07:53:51.330Z,17.67
2022-11-03T07:56:18.394Z,18.60
2022-11-03T07:58:45.458Z,19.30
2022-11-03T08:01:27.899Z,18.63
2022-11-03T08:03:56.910Z,18.60
2022-11-03T08:06:23.959Z,19.23
2022-11-03T08:08:50.969Z,17.73
2022-11-03T08:11:18.056Z,18.00
2022-11-03T08:13:45.062Z,15.80
2022-11-03T08:16:12.094Z,16.52
2022-11-03T08:18:39.077Z,14.45
2022-11-03T08:21:06.179Z,15.02
2022-11-03T08:23:33.696Z,18.95
2022-11-03T08:26:01.064Z,15.57
2022-11-03T08:28:28.377Z,18.00
2022-11-03T08:30:55.417Z,13.32
2022-11-03T08:33:22.467Z,13.50
2022-11-03T08:35:49.509Z,16.17
2022-11-03T08:38:16.619Z,12.82
2022-11-03T08:40:43.634Z,12.07
2022-11-03T08:43:10.616Z,15.95
2022-11-03T08:45:37.685Z,14.05
2022-11-03T08:48:05.228Z,12.73
2022-11-03T08:50:32.563Z,12.93
2022-11-03T08:52:59.619Z,15.02
2022-11-03T08:55:26.704Z,15.55
2022-11-03T08:57:53.787Z,13.98
2022-11-03T09:00:20.817Z,18.30
2022-11-03T09:02:47.844Z,18.00
2022-11-03T09:05:15.208Z,12.98
2022-11-03T09:10:33.280Z,12.57
2022-11-03T09:13:01.476Z,11.27
2022-11-03T09:15:29.199Z,14.70
2022-11-03T09:17:56.243Z,15.40
2022-11-03T09:20:23.276Z,15.20
2022-11-03T09:22:50.345Z,12.82
2022-11-03T09:25:17.350Z,11.70
2022-11-03T09:27:44.397Z,11.93
2022-11-03T09:30:13.663Z,14.95
2022-11-03T09:32:41.709Z,12.77
2022-11-03T09:35:09.824Z,11.85
2022-11-03T09:37:37.034Z,13.30
2022-11-03T09:40:04.549Z,9.32
2022-11-03T09:42:34.155Z,11.15
2022-11-03T09:45:01.588Z,10.68
2022-11-03T09:47:29.754Z,11.60
2022-11-03T09:49:57.856Z,8.20
2022-11-03T09:52:25.269Z,9.85
2022-11-03T09:54:55.319Z,9.77
2022-11-03T09:57:22.438Z,9.00
2022-11-03T09:59:50.512Z,7.95
2022-11-03T10:02:28.140Z,11.70
2022-11-03T10:04:56.883Z,11.68
2022-11-03T10:07:24.781Z,9.15
2022-11-03T10:09:52.578Z,12.73
2022-11-03T10:12:20.245Z,9.40
2022-11-03T10:14:47.915Z,9.80
2022-11-03T10:17:19.378Z,8.57
2022-11-03T10:19:49.144Z,12.30
2022-11-03T10:22:16.421Z,10.13
2022-11-03T10:24:43.434Z,7.43
2022-11-03T10:27:25.267Z,16.67
2022-11-03T10:30:08.835Z,17.27
2022-11-03T10:32:36.145Z,17.33
2022-11-03T10:35:04.120Z,15.48
2022-11-03T10:37:31.179Z,18.48
2022-11-03T10:39:58.688Z,21.58
2022-11-03T10:42:28.136Z,20.52
2022-11-03T10:45:10.960Z,18.80
2022-11-03T10:47:38.043Z,20.00
2022-11-03T10:50:25.117Z,18.05
2022-11-03T10:52:52.739Z,18.05
2022-11-03T10:55:24.004Z,19.05
2022-11-03T10:57:53.373Z,20.85
2022-11-03T11:00:20.567Z,23.88
2022-11-03T11:02:48.201Z,16.67
2022-11-03T11:05:22.919Z,20.63
2022-11-03T11:07:51.323Z,18.60
2022-11-03T11:10:22.927Z,17.27
2022-11-03T11:13:09.617Z,16.88
2022-11-03T11:15:44.542Z,19.05
2022-11-03T11:18:12.087Z,16.17
2022-11-03T11:20:42.369Z,18.25
2022-11-03T11:23:27.474Z,16.67
2022-11-03T11:26:09.624Z,19.33
2022-11-03T11:28:40.322Z,19.08
2022-11-03T11:31:26.187Z,18.33
2022-11-03T11:34:18.396Z,16.23
2022-11-03T11:36:47.316Z,16.95
2022-11-03T11:39:23.400Z,18.88
2022-11-03T11:42:09.216Z,19.65
2022-11-03T11:44:54.836Z,19.38
2022-11-03T11:47:24.662Z,19.17
2022-11-03T11:50:10.179Z,16.88
2022-11-03T11:52:56.841Z,18.88
2022-11-03T11:55:42.433Z,18.33
2022-11-03T11:58:15.119Z,17.02
2022-11-03T12:00:51.266Z,18.75
2022-11-03T12:03:20.363Z,16.55
2022-11-03T12:05:52.910Z,16.40
2022-11-03T12:08:21.262Z,17.60
2022-11-03T12:11:14.749Z,15.43
2022-11-03T12:13:47.297Z,16.88
2022-11-03T12:16:32.871Z,16.08
2022-11-03T12:19:19.131Z,15.27
2022-11-03T12:21:47.477Z,14.48
2022-11-03T12:24:32.786Z,14.80
2022-11-03T12:27:00.412Z,17.77
2022-11-03T12:29:27.900Z,13.82
2022-11-03T12:31:54.953Z,14.93
2022-11-03T12:34:22.353Z,13.88
2022-11-03T12:36:54.729Z,14.88
2022-11-03T12:39:23.096Z,14.52
2022-11-03T12:41:50.075Z,14.02
2022-11-03T12:44:17.144Z,18.20
2022-11-03T12:46:44.321Z,14.48
2022-11-03T12:49:11.305Z,16.52
2022-11-03T12:51:38.307Z,16.33
2022-11-03T12:54:05.342Z,14.25
2022-11-03T12:56:32.342Z,15.45
2022-11-03T12:58:59.396Z,15.15
2022-11-03T13:01:27.011Z,15.80
2022-11-03T13:03:54.079Z,14.10
2022-11-03T13:06:21.118Z,13.43
2022-11-03T13:08:53.077Z,12.48
2022-11-03T13:11:39.112Z,13.68
2022-11-03T13:14:06.260Z,16.15
2022-11-03T13:16:33.466Z,14.65
2022-11-03T13:19:00.464Z,15.43
2022-11-03T13:21:27.584Z,14.30
2022-11-03T13:23:56.221Z,13.07
2022-11-03T13:26:23.259Z,14.38
2022-11-03T13:28:50.291Z,12.55
2022-11-03T13:31:17.291Z,14.63
2022-11-03T13:33:44.299Z,12.57
2022-11-03T13:36:11.511Z,13.77
2022-11-03T13:38:38.559Z,16.70
2022-11-03T13:41:08.948Z,14.38
2022-11-03T13:43:36.276Z,15.07
2022-11-03T13:46:04.791Z,15.80
2022-11-03T13:51:19.145Z,19.23
2022-11-03T13:59:28.200Z,13.93
2022-11-03T14:04:44.204Z,15.02
2022-11-03T14:07:11.717Z,14.00
2022-11-03T14:09:38.928Z,15.27
2022-11-03T14:12:25.066Z,16.38
2022-11-03T14:14:52.078Z,15.63
2022-11-03T14:17:19.182Z,14.32
2022-11-03T14:19:50.402Z,16.00
2022-11-03T14:22:20.051Z,18.27
2022-11-03T14:24:47.179Z,14.23
2022-11-03T14:27:15.717Z,14.15
2022-11-03T14:29:43.724Z,15.10
2022-11-03T14:32:11.203Z,15.95
2022-11-03T14:34:38.647Z,13.35
2022-11-03T14:37:06.140Z,18.48
2022-11-03T14:39:33.232Z,14.95
2022-11-03T14:42:06.365Z,15.10
2022-11-03T14:44:34.429Z,16.23
2022-11-03T14:47:02.023Z,15.15
2022-11-03T14:49:29.828Z,14.75
2022-11-03T14:51:57.300Z,14.02
2022-11-03T14:54:24.966Z,15.20
2022-11-03T14:56:52.519Z,14.95
2022-11-03T14:59:19.627Z,14.82
2022-11-03T15:01:47.357Z,14.55
2022-11-03T15:04:14.777Z,14.98
2022-11-03T15:06:42.149Z,17.45
2022-11-03T15:11:41.981Z,19.45
2022-11-03T15:14:09.015Z,16.00
2022-11-03T15:16:39.146Z,15.85
2022-11-03T15:19:06.818Z,19.10
2022-11-03T15:21:33.832Z,14.23
2022-11-03T15:26:48.274Z,16.40
2022-11-03T15:29:15.317Z,16.73
2022-11-03T15:31:47.540Z,19.85
2022-11-03T15:34:15.203Z,15.82
2022-11-03T15:36:42.301Z,23.48
2022-11-03T15:39:09.561Z,19.25
2022-11-03T15:41:36.606Z,18.88
2022-11-03T15:44:03.664Z,18.48
2022-11-03T15:46:30.677Z,15.85
2022-11-03T15:48:57.939Z,19.73
2022-11-03T15:51:25.220Z,17.42
2022-11-03T15:53:56.960Z,16.13
2022-11-03T15:56:25.442Z,16.13
2022-11-03T15:58:52.461Z,20.42
2022-11-03T16:01:19.623Z,17.63
2022-11-03T16:03:46.732Z,19.85
2022-11-03T16:06:13.748Z,19.92
2022-11-03T16:08:40.793Z,20.60
2022-11-03T16:11:09.041Z,19.10
2022-11-03T16:13:36.358Z,20.55
2022-11-03T16:16:03.464Z,18.35
2022-11-03T16:18:30.471Z,24.23
2022-11-03T16:20:57.525Z,20.50
2022-11-03T16:23:24.695Z,23.05
2022-11-03T16:25:51.784Z,20.55
2022-11-03T16:28:18.771Z,21.17
2022-11-03T16:30:51.115Z,22.55
2022-11-03T16:33:21.028Z,22.60
2022-11-03T16:35:48.052Z,23.27
2022-11-03T16:38:15.417Z,22.48
2022-11-03T16:40:42.817Z,22.58
2022-11-03T16:43:10.143Z,22.45
2022-11-03T16:45:38.086Z,20.88
2022-11-03T16:48:06.161Z,23.55
2022-11-03T16:50:33.783Z,29.02
2022-11-03T16:53:00.892Z,28.20
2022-11-03T16:55:28.183Z,23.48
2022-11-03T16:57:55.168Z,21.65
2022-11-03T17:00:23.893Z,30.10
2022-11-03T17:02:50.967Z,27.17
2022-11-03T17:05:19.817Z,25.95
2022-11-03T17:07:52.020Z,23.20
2022-11-03T17:10:20.919Z,22.52
2022-11-03T17:12:47.943Z,28.27
2022-11-03T17:15:15.005Z,21.90
2022-11-03T17:17:42.153Z,24.13
2022-11-03T17:20:10.555Z,24.63
2022-11-03T17:22:37.620Z,26.05
2022-11-03T17:25:05.317Z,22.52
2022-11-03T17:27:32.470Z,25.08
2022-11-03T17:30:05.352Z,23.92
2022-11-03T17:32:35.968Z,25.20
2022-11-03T17:35:03.633Z,23.73
2022-11-03T17:37:30.685Z,25.67
2022-11-03T17:39:57.834Z,23.95
2022-11-03T17:42:26.059Z,25.25
2022-11-03T17:44:55.362Z,23.45
2022-11-03T17:47:22.678Z,24.02
2022-11-03T17:49:50.177Z,20.85
2022-11-03T17:52:17.167Z,23.25
2022-11-03T17:54:44.307Z,22.50
2022-11-03T17:57:16.576Z,20.98
2022-11-03T17:59:44.028Z,22.90
2022-11-03T18:02:18.267Z,19.88
2022-11-03T18:04:45.887Z,26.67
2022-11-03T18:07:25.998Z,22.00
2022-11-03T18:09:53.459Z,22.92
2022-11-03T18:12:43.275Z,20.70
2022-11-03T18:15:18.403Z,26.00
2022-11-03T18:17:46.117Z,22.08
2022-11-03T18:20:14.701Z,19.38
2022-11-03T18:22:41.739Z,22.83
2022-11-03T18:25:19.108Z,20.75
2022-11-03T18:27:46.230Z,25.08
2022-11-03T18:30:13.910Z,23.77
2022-11-03T18:32:41.586Z,24.98
2022-11-03T18:35:14.261Z,21.42
2022-11-03T18:37:44.115Z,19.42
2022-11-03T18:40:11.934Z,22.30
2022-11-03T18:42:38.985Z,26.30
2022-11-03T18:45:12.258Z,22.20
2022-11-03T18:47:39.285Z,24.73
2022-11-03T18:50:07.039Z,19.50
2022-11-03T18:52:37.016Z,19.27
2022-11-03T18:55:04.471Z,24.08
2022-11-03T18:57:31.541Z,20.65
2022-11-03T18:59:58.652Z,22.50
2022-11-03T19:02:26.460Z,18.63
2022-11-03T19:04:54.204Z,20.10
2022-11-03T19:07:25.205Z,25.75
2022-11-03T19:09:52.542Z,21.15
2022-11-03T19:12:19.911Z,21.02
2022-11-03T19:14:47.970Z,18.75
2022-11-03T19:17:22.932Z,23.95
2022-11-03T19:19:51.655Z,19.35
2022-11-03T19:22:19.765Z,23.65
2022-11-03T19:24:47.112Z,20.65
2022-11-03T19:27:18.741Z,18.25
2022-11-03T19:29:46.750Z,20.77
2022-11-03T19:32:17.359Z,20.67
2022-11-03T19:34:44.504Z,25.45
2022-11-03T19:37:11.907Z,22.10
2022-11-03T19:39:40.527Z,19.73
2022-11-03T19:42:36.507Z,22.80
2022-11-03T19:45:07.728Z,18.98
2022-11-03T19:50:35.169Z,16.02
2022-11-03T19:53:04.041Z,16.83
2022-11-03T19:55:35.167Z,20.52
2022-11-03T19:58:18.888Z,17.80
2022-11-03T20:00:46.413Z,17.70
2022-11-03T20:03:13.850Z,21.85
2022-11-03T20:05:44.976Z,18.58
2022-11-03T20:08:18.768Z,22.50
2022-11-03T20:10:47.548Z,19.20
2022-11-03T20:13:15.443Z,19.75
2022-11-03T20:15:42.545Z,20.58
2022-11-03T20:18:12.695Z,18.98
2022-11-03T20:20:40.854Z,21.00
2022-11-03T20:23:11.575Z,16.80
2022-11-03T20:25:38.565Z,18.45
2022-11-03T20:28:14.253Z,21.98
2022-11-03T20:30:41.228Z,18.77
2022-11-03T20:33:11.221Z,18.15
2022-11-03T20:35:38.523Z,20.92
2022-11-03T20:38:05.895Z,17.08
2022-11-03T20:40:33.308Z,19.27
2022-11-03T20:43:01.155Z,18.35
2022-11-03T20:45:31.346Z,19.05
2022-11-03T20:47:58.549Z,19.38
2022-11-03T20:50:25.976Z,18.17
2022-11-03T20:52:54.211Z,21.13
2022-11-03T20:55:25.215Z,18.10
2022-11-03T20:57:52.990Z,19.48
2022-11-03T21:00:24.531Z,20.80
2022-11-03T21:02:52.010Z,17.08
2022-11-03T21:05:20.459Z,21.23
2022-11-03T21:07:47.808Z,18.60
2022-11-03T21:10:20.215Z,17.85
2022-11-03T21:12:47.761Z,22.25
2022-11-03T21:15:34.399Z,21.58
2022-11-03T21:18:20.402Z,19.67
2022-11-03T21:20:47.666Z,19.08
2022-11-03T21:23:27.870Z,21.63
2022-11-03T21:25:55.041Z,19.58
2022-11-03T21:28:22.422Z,20.58
2022-11-03T21:30:50.443Z,21.25
2022-11-03T21:33:17.794Z,19.73
2022-11-03T21:35:45.605Z,19.50
2022-11-03T21:38:13.290Z,19.48
2022-11-03T21:40:48.419Z,23.15
2022-11-03T21:43:36.129Z,22.55
2022-11-03T21:46:12.433Z,21.13
2022-11-03T21:48:59.044Z,20.02
2022-11-03T21:51:26.169Z,18.67
2022-11-03T21:53:53.165Z,20.42
2022-11-03T21:56:20.173Z,21.23
2022-11-03T21:58:47.173Z,18.60
2022-11-03T22:01:14.577Z,17.92
2022-11-03T22:03:41.751Z,21.95
2022-11-03T22:06:09.727Z,17.83
2022-11-03T22:08:37.438Z,18.38
2022-11-03T22:11:23.749Z,18.48
2022-11-03T22:13:54.018Z,18.38
2022-11-03T22:16:36.645Z,21.02
2022-11-03T22:19:36.831Z,19.73
2022-11-03T22:22:23.930Z,17.88
2022-11-03T22:25:09.827Z,18.45
2022-11-03T22:27:36.997Z,20.30
2022-11-03T22:30:22.900Z,19.63
2022-11-03T22:32:53.819Z,18.00
2022-11-03T22:35:40.459Z,18.30
2022-11-03T22:38:09.540Z,20.10
2022-11-03T22:40:56.022Z,17.65
2022-11-03T22:43:42.374Z,16.83
2022-11-03T22:46:10.073Z,18.80
2022-11-03T22:48:37.570Z,16.98
2022-11-03T22:51:06.080Z,19.40
2022-11-03T22:53:52.253Z,18.25
2022-11-03T22:56:19.882Z,16.90
2022-11-03T22:58:47.177Z,20.13
2022-11-03T23:01:17.320Z,19.95
2022-11-03T23:03:45.249Z,21.23
2022-11-03T23:06:14.011Z,20.83
2022-11-03T23:08:41.613Z,19.70
2022-11-03T23:11:08.908Z,19.08
2022-11-03T23:13:36.754Z,18.10
2022-11-03T23:16:10.279Z,19.73
2022-11-03T23:18:56.300Z,15.25
2022-11-03T23:21:23.342Z,17.90
2022-11-03T23:24:19.727Z,18.85
2022-11-03T23:26:46.879Z,16.77
2022-11-03T23:29:14.528Z,12.38
2022-11-03T23:31:42.676Z,11.60
2022-11-03T23:34:10.480Z,11.10
2022-11-03T23:36:37.705Z,9.05
2022-11-03T23:39:04.912Z,10.32
2022-11-03T23:41:31.972Z,10.38
2022-11-03T23:43:59.229Z,13.85
2022-11-03T23:46:46.246Z,12.90
2022-11-03T23:49:13.989Z,12.93
2022-11-03T23:51:42.043Z,11.00
2022-11-03T23:54:10.421Z,12.10
2022-11-03T23:56:57.226Z,12.40
2022-11-03T23:59:24.637Z,12.00
